sensor_id;sensor_type;location;lat;lon;timestamp;P1;durP1;ratioP1;P2;durP2;ratioP2
21354;SDS011;10835;50.148;19.760;2023-04-01T00:00:50;2.42;;;1.50;;
21354;SDS011;10835;50.148;19.760;2023-04-01T00:03:21;1.75;;;1.10;;
21354;SDS011;10835;50.148;19.760;2023-04-01T00:05:50;2.95;;;1.60;;
21354;SDS011;10835;50.148;19.760;2023-04-01T00:08:22;2.70;;;1.52;;
21354;SDS011;10835;50.148;19.760;2023-04-01T00:10:51;3.47;;;1.38;;
21354;SDS011;10835;50.148;19.760;2023-04-01T00:13:19;2.22;;;1.30;;
21354;SDS011;10835;50.148;19.760;2023-04-01T00:15:48;2.85;;;1.85;;
21354;SDS011;10835;50.148;19.760;2023-04-01T00:18:17;3.03;;;1.58;;
21354;SDS011;10835;50.148;19.760;2023-04-01T00:20:47;2.13;;;1.30;;
21354;SDS011;10835;50.148;19.760;2023-04-01T00:23:17;2.92;;;1.38;;
21354;SDS011;10835;50.148;19.760;2023-04-01T00:25:46;4.70;;;1.48;;
21354;SDS011;10835;50.148;19.760;2023-04-01T00:28:16;2.78;;;1.98;;
21354;SDS011;10835;50.148;19.760;2023-04-01T00:30:45;4.03;;;2.10;;
21354;SDS011;10835;50.148;19.760;2023-04-01T00:33:13;2.83;;;1.83;;
21354;SDS011;10835;50.148;19.760;2023-04-01T00:35:42;3.58;;;1.90;;
21354;SDS011;10835;50.148;19.760;2023-04-01T00:38:13;2.67;;;1.73;;
21354;SDS011;10835;50.148;19.760;2023-04-01T00:40:43;2.30;;;1.58;;
21354;SDS011;10835;50.148;19.760;2023-04-01T00:43:14;3.38;;;2.20;;
21354;SDS011;10835;50.148;19.760;2023-04-01T00:45:45;2.40;;;1.63;;
21354;SDS011;10835;50.148;19.760;2023-04-01T00:48:16;3.13;;;2.03;;
21354;SDS011;10835;50.148;19.760;2023-04-01T00:50:48;3.00;;;1.73;;
21354;SDS011;10835;50.148;19.760;2023-04-01T00:53:21;5.15;;;2.10;;
21354;SDS011;10835;50.148;19.760;2023-04-01T00:55:51;3.25;;;1.58;;
21354;SDS011;10835;50.148;19.760;2023-04-01T00:58:24;3.20;;;1.52;;
21354;SDS011;10835;50.148;19.760;2023-04-01T01:00:54;5.05;;;1.80;;
21354;SDS011;10835;50.148;19.760;2023-04-01T01:03:24;4.25;;;1.90;;
21354;SDS011;10835;50.148;19.760;2023-04-01T01:08:50;6.80;;;2.67;;
21354;SDS011;10835;50.148;19.760;2023-04-01T01:11:33;3.85;;;1.77;;
21354;SDS011;10835;50.148;19.760;2023-04-01T01:14:11;6.75;;;2.08;;
21354;SDS011;10835;50.148;19.760;2023-04-01T01:16:52;3.50;;;2.40;;
21354;SDS011;10835;50.148;19.760;2023-04-01T01:19:32;5.35;;;2.00;;
21354;SDS011;10835;50.148;19.760;2023-04-01T01:22:26;3.95;;;1.80;;
21354;SDS011;10835;50.148;19.760;2023-04-01T01:25:28;3.92;;;1.67;;
21354;SDS011;10835;50.148;19.760;2023-04-01T01:28:06;3.53;;;1.60;;
21354;SDS011;10835;50.148;19.760;2023-04-01T01:30:47;3.70;;;1.52;;
21354;SDS011;10835;50.148;19.760;2023-04-01T01:36:16;2.28;;;1.63;;
21354;SDS011;10835;50.148;19.760;2023-04-01T01:38:48;3.80;;;2.00;;
21354;SDS011;10835;50.148;19.760;2023-04-01T01:41:18;4.10;;;1.98;;
21354;SDS011;10835;50.148;19.760;2023-04-01T01:43:49;4.85;;;1.70;;
21354;SDS011;10835;50.148;19.760;2023-04-01T01:46:22;2.42;;;1.73;;
21354;SDS011;10835;50.148;19.760;2023-04-01T01:48:53;3.13;;;1.65;;
21354;SDS011;10835;50.148;19.760;2023-04-01T01:51:23;2.33;;;1.70;;
21354;SDS011;10835;50.148;19.760;2023-04-01T01:53:54;4.30;;;1.90;;
21354;SDS011;10835;50.148;19.760;2023-04-01T01:56:24;3.50;;;2.20;;
21354;SDS011;10835;50.148;19.760;2023-04-01T01:58:57;5.90;;;1.55;;
21354;SDS011;10835;50.148;19.760;2023-04-01T02:01:31;3.15;;;1.80;;
21354;SDS011;10835;50.148;19.760;2023-04-01T02:04:09;2.63;;;1.70;;
21354;SDS011;10835;50.148;19.760;2023-04-01T02:06:43;4.93;;;2.45;;
21354;SDS011;10835;50.148;19.760;2023-04-01T02:09:15;5.38;;;2.15;;
21354;SDS011;10835;50.148;19.760;2023-04-01T02:11:45;4.07;;;2.10;;
21354;SDS011;10835;50.148;19.760;2023-04-01T02:14:17;6.95;;;2.60;;
21354;SDS011;10835;50.148;19.760;2023-04-01T02:16:49;6.25;;;2.35;;
21354;SDS011;10835;50.148;19.760;2023-04-01T02:19:20;3.75;;;2.10;;
21354;SDS011;10835;50.148;19.760;2023-04-01T02:21:55;4.65;;;2.53;;
21354;SDS011;10835;50.148;19.760;2023-04-01T02:24:27;3.42;;;1.73;;
21354;SDS011;10835;50.148;19.760;2023-04-01T02:26:58;4.72;;;2.20;;
21354;SDS011;10835;50.148;19.760;2023-04-01T02:29:27;3.45;;;1.80;;
21354;SDS011;10835;50.148;19.760;2023-04-01T02:31:56;7.15;;;1.60;;
21354;SDS011;10835;50.148;19.760;2023-04-01T02:34:28;6.20;;;1.90;;
21354;SDS011;10835;50.148;19.760;2023-04-01T02:36:59;3.72;;;1.83;;
21354;SDS011;10835;50.148;19.760;2023-04-01T02:39:28;3.83;;;2.25;;
21354;SDS011;10835;50.148;19.760;2023-04-01T02:41:56;4.28;;;2.33;;
21354;SDS011;10835;50.148;19.760;2023-04-01T02:44:25;5.85;;;2.28;;
21354;SDS011;10835;50.148;19.760;2023-04-01T02:46:53;9.20;;;3.10;;
21354;SDS011;10835;50.148;19.760;2023-04-01T02:49:21;8.65;;;3.15;;
21354;SDS011;10835;50.148;19.760;2023-04-01T02:51:49;2.97;;;2.20;;
21354;SDS011;10835;50.148;19.760;2023-04-01T02:54:19;3.50;;;2.10;;
21354;SDS011;10835;50.148;19.760;2023-04-01T02:56:48;2.33;;;1.80;;
21354;SDS011;10835;50.148;19.760;2023-04-01T02:59:16;2.97;;;1.80;;
21354;SDS011;10835;50.148;19.760;2023-04-01T03:01:44;3.20;;;1.60;;
21354;SDS011;10835;50.148;19.760;2023-04-01T03:04:12;3.08;;;2.00;;
21354;SDS011;10835;50.148;19.760;2023-04-01T03:06:41;5.90;;;2.55;;
21354;SDS011;10835;50.148;19.760;2023-04-01T03:09:09;4.70;;;2.15;;
21354;SDS011;10835;50.148;19.760;2023-04-01T03:11:39;4.20;;;2.25;;
21354;SDS011;10835;50.148;19.760;2023-04-01T03:14:07;3.55;;;2.45;;
21354;SDS011;10835;50.148;19.760;2023-04-01T03:16:35;47.25;;;14.63;;
21354;SDS011;10835;50.148;19.760;2023-04-01T03:19:04;13.75;;;5.03;;
21354;SDS011;10835;50.148;19.760;2023-04-01T03:21:32;11.48;;;4.78;;
21354;SDS011;10835;50.148;19.760;2023-04-01T03:24:00;9.75;;;3.58;;
21354;SDS011;10835;50.148;19.760;2023-04-01T03:26:29;4.70;;;2.67;;
21354;SDS011;10835;50.148;19.760;2023-04-01T03:28:59;3.65;;;2.42;;
21354;SDS011;10835;50.148;19.760;2023-04-01T03:31:27;3.05;;;2.20;;
21354;SDS011;10835;50.148;19.760;2023-04-01T03:33:56;5.03;;;2.22;;
21354;SDS011;10835;50.148;19.760;2023-04-01T03:36:25;3.13;;;1.45;;
21354;SDS011;10835;50.148;19.760;2023-04-01T03:38:53;3.85;;;1.70;;
21354;SDS011;10835;50.148;19.760;2023-04-01T03:41:31;2.25;;;1.60;;
21354;SDS011;10835;50.148;19.760;2023-04-01T03:44:01;2.88;;;1.77;;
21354;SDS011;10835;50.148;19.760;2023-04-01T03:46:30;3.10;;;1.75;;
21354;SDS011;10835;50.148;19.760;2023-04-01T03:48:58;2.38;;;1.50;;
21354;SDS011;10835;50.148;19.760;2023-04-01T03:51:26;4.25;;;1.83;;
21354;SDS011;10835;50.148;19.760;2023-04-01T03:53:54;2.20;;;1.45;;
21354;SDS011;10835;50.148;19.760;2023-04-01T03:56:23;2.67;;;1.42;;
21354;SDS011;10835;50.148;19.760;2023-04-01T03:58:51;2.65;;;1.70;;
21354;SDS011;10835;50.148;19.760;2023-04-01T04:01:21;3.30;;;1.83;;
21354;SDS011;10835;50.148;19.760;2023-04-01T04:03:54;2.67;;;1.17;;
21354;SDS011;10835;50.148;19.760;2023-04-01T04:06:23;2.65;;;1.33;;
21354;SDS011;10835;50.148;19.760;2023-04-01T04:08:55;3.22;;;1.88;;
21354;SDS011;10835;50.148;19.760;2023-04-01T04:11:25;6.00;;;2.28;;
21354;SDS011;10835;50.148;19.760;2023-04-01T04:13:56;3.67;;;1.80;;
21354;SDS011;10835;50.148;19.760;2023-04-01T04:16:26;2.58;;;1.73;;
21354;SDS011;10835;50.148;19.760;2023-04-01T04:18:58;2.45;;;1.75;;
21354;SDS011;10835;50.148;19.760;2023-04-01T04:21:27;3.53;;;2.03;;
21354;SDS011;10835;50.148;19.760;2023-04-01T04:23:56;2.95;;;1.77;;
21354;SDS011;10835;50.148;19.760;2023-04-01T04:26:27;2.58;;;1.60;;
21354;SDS011;10835;50.148;19.760;2023-04-01T04:28:59;4.65;;;2.20;;
21354;SDS011;10835;50.148;19.760;2023-04-01T04:31:31;3.40;;;2.05;;
21354;SDS011;10835;50.148;19.760;2023-04-01T04:34:00;3.80;;;2.20;;
21354;SDS011;10835;50.148;19.760;2023-04-01T04:36:32;5.32;;;2.20;;
21354;SDS011;10835;50.148;19.760;2023-04-01T04:39:00;3.92;;;2.22;;
21354;SDS011;10835;50.148;19.760;2023-04-01T04:41:31;3.63;;;2.17;;
21354;SDS011;10835;50.148;19.760;2023-04-01T04:44:03;3.67;;;1.90;;
21354;SDS011;10835;50.148;19.760;2023-04-01T04:46:35;4.22;;;2.33;;
21354;SDS011;10835;50.148;19.760;2023-04-01T04:49:13;3.50;;;1.73;;
21354;SDS011;10835;50.148;19.760;2023-04-01T04:51:41;3.97;;;1.90;;
21354;SDS011;10835;50.148;19.760;2023-04-01T04:54:11;5.60;;;2.00;;
21354;SDS011;10835;50.148;19.760;2023-04-01T04:56:50;2.70;;;1.73;;
21354;SDS011;10835;50.148;19.760;2023-04-01T04:59:20;3.20;;;1.40;;
21354;SDS011;10835;50.148;19.760;2023-04-01T05:02:16;3.38;;;1.42;;
21354;SDS011;10835;50.148;19.760;2023-04-01T05:04:44;3.78;;;1.80;;
21354;SDS011;10835;50.148;19.760;2023-04-01T05:07:13;5.43;;;2.10;;
21354;SDS011;10835;50.148;19.760;2023-04-01T05:09:42;2.78;;;1.67;;
21354;SDS011;10835;50.148;19.760;2023-04-01T05:12:12;4.35;;;2.05;;
21354;SDS011;10835;50.148;19.760;2023-04-01T05:14:55;4.22;;;2.10;;
21354;SDS011;10835;50.148;19.760;2023-04-01T05:17:24;5.15;;;1.70;;
21354;SDS011;10835;50.148;19.760;2023-04-01T05:19:53;5.70;;;1.83;;
21354;SDS011;10835;50.148;19.760;2023-04-01T05:22:22;3.15;;;1.85;;
21354;SDS011;10835;50.148;19.760;2023-04-01T05:24:52;6.53;;;2.53;;
21354;SDS011;10835;50.148;19.760;2023-04-01T05:27:21;4.15;;;2.10;;
21354;SDS011;10835;50.148;19.760;2023-04-01T05:29:49;6.15;;;2.00;;
21354;SDS011;10835;50.148;19.760;2023-04-01T05:32:57;6.28;;;3.50;;
21354;SDS011;10835;50.148;19.760;2023-04-01T05:35:26;5.72;;;2.75;;
21354;SDS011;10835;50.148;19.760;2023-04-01T05:37:54;8.70;;;3.95;;
21354;SDS011;10835;50.148;19.760;2023-04-01T05:40:22;6.13;;;3.55;;
21354;SDS011;10835;50.148;19.760;2023-04-01T05:42:51;3.80;;;2.15;;
21354;SDS011;10835;50.148;19.760;2023-04-01T05:45:19;5.75;;;3.60;;
21354;SDS011;10835;50.148;19.760;2023-04-01T05:48:12;7.38;;;3.90;;
21354;SDS011;10835;50.148;19.760;2023-04-01T05:50:41;6.35;;;4.05;;
21354;SDS011;10835;50.148;19.760;2023-04-01T05:53:10;3.72;;;2.35;;
21354;SDS011;10835;50.148;19.760;2023-04-01T05:55:41;4.30;;;2.55;;
21354;SDS011;10835;50.148;19.760;2023-04-01T05:58:10;3.90;;;1.80;;
21354;SDS011;10835;50.148;19.760;2023-04-01T06:00:42;4.22;;;1.85;;
21354;SDS011;10835;50.148;19.760;2023-04-01T06:03:14;3.50;;;1.50;;
21354;SDS011;10835;50.148;19.760;2023-04-01T06:05:43;3.55;;;1.83;;
21354;SDS011;10835;50.148;19.760;2023-04-01T06:08:13;3.47;;;1.52;;
21354;SDS011;10835;50.148;19.760;2023-04-01T06:10:58;3.60;;;2.00;;
21354;SDS011;10835;50.148;19.760;2023-04-01T06:13:37;4.55;;;1.90;;
21354;SDS011;10835;50.148;19.760;2023-04-01T06:16:15;2.35;;;1.55;;
21354;SDS011;10835;50.148;19.760;2023-04-01T06:19:07;2.03;;;1.52;;
21354;SDS011;10835;50.148;19.760;2023-04-01T06:21:53;2.60;;;1.60;;
21354;SDS011;10835;50.148;19.760;2023-04-01T06:24:42;2.90;;;1.48;;
21354;SDS011;10835;50.148;19.760;2023-04-01T06:27:35;3.70;;;2.10;;
21354;SDS011;10835;50.148;19.760;2023-04-01T06:30:20;3.75;;;1.80;;
21354;SDS011;10835;50.148;19.760;2023-04-01T06:33:09;5.82;;;2.30;;
21354;SDS011;10835;50.148;19.760;2023-04-01T06:35:54;2.75;;;1.58;;
21354;SDS011;10835;50.148;19.760;2023-04-01T06:38:39;1.95;;;1.48;;
21354;SDS011;10835;50.148;19.760;2023-04-01T06:41:21;4.82;;;1.55;;
21354;SDS011;10835;50.148;19.760;2023-04-01T06:44:08;4.32;;;1.73;;
21354;SDS011;10835;50.148;19.760;2023-04-01T06:47:06;4.25;;;1.95;;
21354;SDS011;10835;50.148;19.760;2023-04-01T06:50:07;2.30;;;1.58;;
21354;SDS011;10835;50.148;19.760;2023-04-01T06:53:09;3.47;;;1.80;;
21354;SDS011;10835;50.148;19.760;2023-04-01T06:56:00;1.35;;;1.05;;
21354;SDS011;10835;50.148;19.760;2023-04-01T06:58:42;4.13;;;1.88;;
21354;SDS011;10835;50.148;19.760;2023-04-01T07:01:17;3.63;;;1.65;;
21354;SDS011;10835;50.148;19.760;2023-04-01T07:03:49;4.72;;;1.95;;
21354;SDS011;10835;50.148;19.760;2023-04-01T07:06:24;5.38;;;1.55;;
21354;SDS011;10835;50.148;19.760;2023-04-01T07:08:59;3.55;;;1.63;;
21354;SDS011;10835;50.148;19.760;2023-04-01T07:11:51;1.27;;;0.98;;
21354;SDS011;10835;50.148;19.760;2023-04-01T07:14:50;2.00;;;1.27;;
21354;SDS011;10835;50.148;19.760;2023-04-01T07:17:22;3.63;;;1.40;;
21354;SDS011;10835;50.148;19.760;2023-04-01T07:19:56;5.93;;;1.55;;
21354;SDS011;10835;50.148;19.760;2023-04-01T07:22:31;4.80;;;1.65;;
21354;SDS011;10835;50.148;19.760;2023-04-01T07:25:29;2.47;;;0.93;;
21354;SDS011;10835;50.148;19.760;2023-04-01T07:28:21;3.50;;;1.50;;
21354;SDS011;10835;50.148;19.760;2023-04-01T07:31:04;3.08;;;1.48;;
21354;SDS011;10835;50.148;19.760;2023-04-01T07:33:42;3.00;;;1.65;;
21354;SDS011;10835;50.148;19.760;2023-04-01T07:36:17;1.73;;;1.30;;
21354;SDS011;10835;50.148;19.760;2023-04-01T07:38:55;1.83;;;1.38;;
21354;SDS011;10835;50.148;19.760;2023-04-01T07:42:01;1.23;;;1.00;;
21354;SDS011;10835;50.148;19.760;2023-04-01T07:44:38;1.73;;;1.30;;
21354;SDS011;10835;50.148;19.760;2023-04-01T07:47:20;3.20;;;1.23;;
21354;SDS011;10835;50.148;19.760;2023-04-01T07:50:02;4.05;;;1.38;;
21354;SDS011;10835;50.148;19.760;2023-04-01T07:52:48;1.25;;;0.88;;
21354;SDS011;10835;50.148;19.760;2023-04-01T07:55:26;4.78;;;1.08;;
21354;SDS011;10835;50.148;19.760;2023-04-01T07:58:04;8.20;;;1.52;;
21354;SDS011;10835;50.148;19.760;2023-04-01T08:00:42;2.53;;;1.15;;
21354;SDS011;10835;50.148;19.760;2023-04-01T08:03:36;2.92;;;1.48;;
21354;SDS011;10835;50.148;19.760;2023-04-01T08:06:14;0.90;;;0.60;;
21354;SDS011;10835;50.148;19.760;2023-04-01T08:08:52;1.10;;;0.88;;
21354;SDS011;10835;50.148;19.760;2023-04-01T08:12:05;0.47;;;0.47;;
21354;SDS011;10835;50.148;19.760;2023-04-01T08:15:10;10.65;;;1.20;;
21354;SDS011;10835;50.148;19.760;2023-04-01T08:18:11;1.80;;;0.68;;
21354;SDS011;10835;50.148;19.760;2023-04-01T08:20:50;1.60;;;0.70;;
21354;SDS011;10835;50.148;19.760;2023-04-01T08:23:22;2.63;;;0.85;;
21354;SDS011;10835;50.148;19.760;2023-04-01T08:25:53;1.75;;;1.23;;
21354;SDS011;10835;50.148;19.760;2023-04-01T08:28:32;3.92;;;1.30;;
21354;SDS011;10835;50.148;19.760;2023-04-01T08:31:13;2.28;;;1.40;;
21354;SDS011;10835;50.148;19.760;2023-04-01T08:33:46;1.73;;;1.27;;
21354;SDS011;10835;50.148;19.760;2023-04-01T08:36:17;0.90;;;0.73;;
21354;SDS011;10835;50.148;19.760;2023-04-01T08:39:02;3.60;;;1.63;;
21354;SDS011;10835;50.148;19.760;2023-04-01T08:44:36;3.60;;;1.25;;
21354;SDS011;10835;50.148;19.760;2023-04-01T08:47:46;1.17;;;1.00;;
21354;SDS011;10835;50.148;19.760;2023-04-01T08:50:26;3.40;;;1.50;;
21354;SDS011;10835;50.148;19.760;2023-04-01T08:53:16;0.50;;;0.50;;
21354;SDS011;10835;50.148;19.760;2023-04-01T08:56:01;1.88;;;1.10;;
21354;SDS011;10835;50.148;19.760;2023-04-01T08:58:50;0.30;;;0.30;;
21354;SDS011;10835;50.148;19.760;2023-04-01T09:01:44;0.82;;;0.80;;
21354;SDS011;10835;50.148;19.760;2023-04-01T09:04:46;1.02;;;0.70;;
21354;SDS011;10835;50.148;19.760;2023-04-01T09:07:34;0.73;;;0.60;;
21354;SDS011;10835;50.148;19.760;2023-04-01T09:13:34;2.97;;;1.23;;
21354;SDS011;10835;50.148;19.760;2023-04-01T09:19:33;3.15;;;1.23;;
21354;SDS011;10835;50.148;19.760;2023-04-01T09:22:30;0.60;;;0.60;;
21354;SDS011;10835;50.148;19.760;2023-04-01T09:28:25;2.20;;;1.23;;
21354;SDS011;10835;50.148;19.760;2023-04-01T09:34:20;1.85;;;0.85;;
21354;SDS011;10835;50.148;19.760;2023-04-01T09:37:13;1.60;;;1.50;;
21354;SDS011;10835;50.148;19.760;2023-04-01T09:39:56;1.83;;;1.42;;
21354;SDS011;10835;50.148;19.760;2023-04-01T09:45:37;11.93;;;4.18;;
21354;SDS011;10835;50.148;19.760;2023-04-01T09:48:17;15.50;;;6.10;;
21354;SDS011;10835;50.148;19.760;2023-04-01T09:50:56;23.90;;;8.85;;
21354;SDS011;10835;50.148;19.760;2023-04-01T09:53:48;15.85;;;5.97;;
21354;SDS011;10835;50.148;19.760;2023-04-01T09:56:52;12.85;;;5.40;;
21354;SDS011;10835;50.148;19.760;2023-04-01T10:03:10;14.68;;;5.78;;
21354;SDS011;10835;50.148;19.760;2023-04-01T10:06:22;4.70;;;2.67;;
21354;SDS011;10835;50.148;19.760;2023-04-01T10:09:21;1.30;;;1.20;;
21354;SDS011;10835;50.148;19.760;2023-04-01T10:12:23;8.40;;;2.95;;
21354;SDS011;10835;50.148;19.760;2023-04-01T10:15:25;2.72;;;1.52;;
21354;SDS011;10835;50.148;19.760;2023-04-01T10:24:49;5.50;;;1.75;;
21354;SDS011;10835;50.148;19.760;2023-04-01T10:27:41;4.68;;;2.35;;
21354;SDS011;10835;50.148;19.760;2023-04-01T10:31:18;3.78;;;2.45;;
21354;SDS011;10835;50.148;19.760;2023-04-01T10:34:18;2.75;;;1.73;;
21354;SDS011;10835;50.148;19.760;2023-04-01T10:37:15;4.38;;;2.28;;
21354;SDS011;10835;50.148;19.760;2023-04-01T10:40:12;1.42;;;1.23;;
21354;SDS011;10835;50.148;19.760;2023-04-01T10:49:28;6.22;;;2.17;;
21354;SDS011;10835;50.148;19.760;2023-04-01T10:55:33;6.57;;;3.03;;
21354;SDS011;10835;50.148;19.760;2023-04-01T11:02:23;1.70;;;1.08;;
21354;SDS011;10835;50.148;19.760;2023-04-01T11:11:56;2.47;;;1.42;;
21354;SDS011;10835;50.148;19.760;2023-04-01T11:14:55;6.75;;;2.42;;
21354;SDS011;10835;50.148;19.760;2023-04-01T11:17:58;1.98;;;1.65;;
21354;SDS011;10835;50.148;19.760;2023-04-01T11:20:57;7.32;;;3.65;;
21354;SDS011;10835;50.148;19.760;2023-04-01T11:24:07;4.18;;;2.75;;
21354;SDS011;10835;50.148;19.760;2023-04-01T11:27:23;8.23;;;2.85;;
21354;SDS011;10835;50.148;19.760;2023-04-01T11:32:54;3.17;;;1.90;;
21354;SDS011;10835;50.148;19.760;2023-04-01T11:38:42;2.78;;;1.67;;
21354;SDS011;10835;50.148;19.760;2023-04-01T11:41:38;5.07;;;2.20;;
21354;SDS011;10835;50.148;19.760;2023-04-01T11:44:38;6.68;;;3.15;;
21354;SDS011;10835;50.148;19.760;2023-04-01T11:47:27;3.42;;;1.83;;
21354;SDS011;10835;50.148;19.760;2023-04-01T11:50:15;6.22;;;2.60;;
21354;SDS011;10835;50.148;19.760;2023-04-01T11:53:01;14.68;;;4.38;;
21354;SDS011;10835;50.148;19.760;2023-04-01T11:55:54;8.70;;;2.88;;
21354;SDS011;10835;50.148;19.760;2023-04-01T12:01:31;10.30;;;3.97;;
21354;SDS011;10835;50.148;19.760;2023-04-01T12:07:27;9.35;;;3.38;;
21354;SDS011;10835;50.148;19.760;2023-04-01T12:10:15;4.57;;;2.25;;
21354;SDS011;10835;50.148;19.760;2023-04-01T12:12:51;9.15;;;2.83;;
21354;SDS011;10835;50.148;19.760;2023-04-01T12:15:29;2.15;;;1.48;;
21354;SDS011;10835;50.148;19.760;2023-04-01T12:18:09;4.05;;;2.30;;
21354;SDS011;10835;50.148;19.760;2023-04-01T12:20:46;10.20;;;2.75;;
21354;SDS011;10835;50.148;19.760;2023-04-01T12:23:28;4.40;;;2.55;;
21354;SDS011;10835;50.148;19.760;2023-04-01T12:26:31;4.72;;;2.30;;
21354;SDS011;10835;50.148;19.760;2023-04-01T12:29:14;2.95;;;1.60;;
21354;SDS011;10835;50.148;19.760;2023-04-01T12:31:58;3.05;;;1.50;;
21354;SDS011;10835;50.148;19.760;2023-04-01T12:34:42;2.88;;;1.20;;
21354;SDS011;10835;50.148;19.760;2023-04-01T12:37:39;1.60;;;1.20;;
21354;SDS011;10835;50.148;19.760;2023-04-01T12:40:35;2.38;;;1.48;;
21354;SDS011;10835;50.148;19.760;2023-04-01T12:43:23;1.88;;;1.05;;
21354;SDS011;10835;50.148;19.760;2023-04-01T12:46:15;3.17;;;2.05;;
21354;SDS011;10835;50.148;19.760;2023-04-01T12:48:57;2.80;;;1.85;;
21354;SDS011;10835;50.148;19.760;2023-04-01T12:51:50;2.83;;;1.27;;
21354;SDS011;10835;50.148;19.760;2023-04-01T12:54:54;1.98;;;1.30;;
21354;SDS011;10835;50.148;19.760;2023-04-01T12:57:50;2.80;;;1.60;;
21354;SDS011;10835;50.148;19.760;2023-04-01T13:00:49;1.75;;;1.30;;
21354;SDS011;10835;50.148;19.760;2023-04-01T13:03:52;2.72;;;2.00;;
21354;SDS011;10835;50.148;19.760;2023-04-01T13:09:29;8.70;;;2.45;;
21354;SDS011;10835;50.148;19.760;2023-04-01T13:12:14;2.67;;;1.30;;
21354;SDS011;10835;50.148;19.760;2023-04-01T13:17:50;3.70;;;1.95;;
21354;SDS011;10835;50.148;19.760;2023-04-01T13:20:29;3.88;;;2.50;;
21354;SDS011;10835;50.148;19.760;2023-04-01T13:23:14;4.05;;;1.83;;
21354;SDS011;10835;50.148;19.760;2023-04-01T13:25:53;4.05;;;2.20;;
21354;SDS011;10835;50.148;19.760;2023-04-01T13:28:40;2.42;;;1.70;;
21354;SDS011;10835;50.148;19.760;2023-04-01T13:31:20;3.45;;;1.50;;
21354;SDS011;10835;50.148;19.760;2023-04-01T13:34:13;4.30;;;2.40;;
21354;SDS011;10835;50.148;19.760;2023-04-01T13:36:56;2.50;;;1.10;;
21354;SDS011;10835;50.148;19.760;2023-04-01T13:39:38;7.65;;;3.03;;
21354;SDS011;10835;50.148;19.760;2023-04-01T13:42:19;4.13;;;1.65;;
21354;SDS011;10835;50.148;19.760;2023-04-01T13:44:53;2.72;;;1.48;;
21354;SDS011;10835;50.148;19.760;2023-04-01T13:47:26;3.60;;;1.60;;
21354;SDS011;10835;50.148;19.760;2023-04-01T13:50:37;3.90;;;2.05;;
21354;SDS011;10835;50.148;19.760;2023-04-01T13:56:37;2.83;;;1.50;;
21354;SDS011;10835;50.148;19.760;2023-04-01T14:02:31;5.00;;;2.47;;
21354;SDS011;10835;50.148;19.760;2023-04-01T14:05:40;3.30;;;1.85;;
21354;SDS011;10835;50.148;19.760;2023-04-01T14:08:19;2.85;;;1.88;;
21354;SDS011;10835;50.148;19.760;2023-04-01T14:10:56;3.70;;;1.58;;
21354;SDS011;10835;50.148;19.760;2023-04-01T14:13:41;6.05;;;3.55;;
21354;SDS011;10835;50.148;19.760;2023-04-01T14:16:32;3.20;;;1.83;;
21354;SDS011;10835;50.148;19.760;2023-04-01T14:19:26;3.10;;;2.15;;
21354;SDS011;10835;50.148;19.760;2023-04-01T14:22:13;3.10;;;2.00;;
21354;SDS011;10835;50.148;19.760;2023-04-01T14:28:09;3.40;;;2.15;;
21354;SDS011;10835;50.148;19.760;2023-04-01T14:31:13;3.08;;;2.35;;
21354;SDS011;10835;50.148;19.760;2023-04-01T14:33:55;3.15;;;2.00;;
21354;SDS011;10835;50.148;19.760;2023-04-01T14:39:22;3.30;;;2.28;;
21354;SDS011;10835;50.148;19.760;2023-04-01T14:42:05;2.55;;;1.67;;
21354;SDS011;10835;50.148;19.760;2023-04-01T14:44:57;4.07;;;2.58;;
21354;SDS011;10835;50.148;19.760;2023-04-01T14:47:51;4.53;;;1.85;;
21354;SDS011;10835;50.148;19.760;2023-04-01T14:50:23;2.92;;;1.85;;
21354;SDS011;10835;50.148;19.760;2023-04-01T14:52:59;4.75;;;2.35;;
21354;SDS011;10835;50.148;19.760;2023-04-01T14:55:46;5.78;;;2.42;;
21354;SDS011;10835;50.148;19.760;2023-04-01T14:58:18;3.30;;;1.85;;
21354;SDS011;10835;50.148;19.760;2023-04-01T15:00:57;3.60;;;1.75;;
21354;SDS011;10835;50.148;19.760;2023-04-01T15:03:38;5.78;;;4.15;;
21354;SDS011;10835;50.148;19.760;2023-04-01T15:06:27;6.72;;;3.65;;
21354;SDS011;10835;50.148;19.760;2023-04-01T15:09:06;5.28;;;2.47;;
21354;SDS011;10835;50.148;19.760;2023-04-01T15:11:44;4.15;;;2.50;;
21354;SDS011;10835;50.148;19.760;2023-04-01T15:17:40;2.70;;;1.83;;
21354;SDS011;10835;50.148;19.760;2023-04-01T15:23:25;6.78;;;2.88;;
21354;SDS011;10835;50.148;19.760;2023-04-01T15:26:08;8.68;;;3.63;;
21354;SDS011;10835;50.148;19.760;2023-04-01T15:28:45;4.28;;;2.60;;
21354;SDS011;10835;50.148;19.760;2023-04-01T15:31:24;6.40;;;4.07;;
21354;SDS011;10835;50.148;19.760;2023-04-01T15:34:06;4.72;;;3.33;;
21354;SDS011;10835;50.148;19.760;2023-04-01T15:36:50;4.53;;;2.55;;
21354;SDS011;10835;50.148;19.760;2023-04-01T15:39:27;5.13;;;3.20;;
21354;SDS011;10835;50.148;19.760;2023-04-01T15:42:11;5.05;;;3.55;;
21354;SDS011;10835;50.148;19.760;2023-04-01T15:44:58;5.55;;;2.80;;
21354;SDS011;10835;50.148;19.760;2023-04-01T15:47:38;5.47;;;3.30;;
21354;SDS011;10835;50.148;19.760;2023-04-01T15:50:26;3.08;;;2.33;;
21354;SDS011;10835;50.148;19.760;2023-04-01T15:53:20;11.05;;;4.80;;
21354;SDS011;10835;50.148;19.760;2023-04-01T15:56:23;5.00;;;2.65;;
21354;SDS011;10835;50.148;19.760;2023-04-01T15:59:02;8.70;;;4.85;;
21354;SDS011;10835;50.148;19.760;2023-04-01T16:01:43;6.93;;;4.30;;
21354;SDS011;10835;50.148;19.760;2023-04-01T16:04:24;7.18;;;4.22;;
21354;SDS011;10835;50.148;19.760;2023-04-01T16:07:08;8.20;;;4.32;;
21354;SDS011;10835;50.148;19.760;2023-04-01T16:09:48;8.43;;;3.75;;
21354;SDS011;10835;50.148;19.760;2023-04-01T16:12:36;7.88;;;3.88;;
21354;SDS011;10835;50.148;19.760;2023-04-01T16:15:16;7.47;;;3.38;;
21354;SDS011;10835;50.148;19.760;2023-04-01T16:20:55;7.18;;;3.40;;
21354;SDS011;10835;50.148;19.760;2023-04-01T16:23:30;5.45;;;3.03;;
21354;SDS011;10835;50.148;19.760;2023-04-01T16:26:07;4.25;;;2.80;;
21354;SDS011;10835;50.148;19.760;2023-04-01T16:28:42;3.15;;;2.17;;
21354;SDS011;10835;50.148;19.760;2023-04-01T16:31:27;4.18;;;2.53;;
21354;SDS011;10835;50.148;19.760;2023-04-01T16:34:01;8.18;;;3.03;;
21354;SDS011;10835;50.148;19.760;2023-04-01T16:36:35;7.93;;;3.80;;
21354;SDS011;10835;50.148;19.760;2023-04-01T16:39:18;8.70;;;4.35;;
21354;SDS011;10835;50.148;19.760;2023-04-01T16:42:09;7.10;;;3.90;;
21354;SDS011;10835;50.148;19.760;2023-04-01T16:44:52;7.90;;;4.65;;
21354;SDS011;10835;50.148;19.760;2023-04-01T16:47:27;9.77;;;5.55;;
21354;SDS011;10835;50.148;19.760;2023-04-01T16:49:59;11.32;;;6.88;;
21354;SDS011;10835;50.148;19.760;2023-04-01T16:52:42;13.32;;;8.23;;
21354;SDS011;10835;50.148;19.760;2023-04-01T16:55:19;12.57;;;7.07;;
21354;SDS011;10835;50.148;19.760;2023-04-01T16:57:51;11.57;;;7.05;;
21354;SDS011;10835;50.148;19.760;2023-04-01T17:00:26;14.52;;;7.60;;
21354;SDS011;10835;50.148;19.760;2023-04-01T17:02:58;15.82;;;8.07;;
21354;SDS011;10835;50.148;19.760;2023-04-01T17:05:39;15.40;;;8.77;;
21354;SDS011;10835;50.148;19.760;2023-04-01T17:08:22;11.38;;;6.97;;
21354;SDS011;10835;50.148;19.760;2023-04-01T17:11:02;15.55;;;9.13;;
21354;SDS011;10835;50.148;19.760;2023-04-01T17:13:41;18.58;;;10.30;;
21354;SDS011;10835;50.148;19.760;2023-04-01T17:19:22;19.73;;;10.20;;
21354;SDS011;10835;50.148;19.760;2023-04-01T17:22:04;23.38;;;13.65;;
21354;SDS011;10835;50.148;19.760;2023-04-01T17:24:45;19.25;;;10.95;;
21354;SDS011;10835;50.148;19.760;2023-04-01T17:27:26;24.15;;;13.98;;